Time;durP1;ratioP1;P1;durP2;ratioP2;P2;SDS_P1;SDS_P2;PMS_P1;PMS_P2;Temp;Humidity;BMP_temperature;BMP_pressure;BME280_temperature;BME280_humidity;BME280_pressure;Samples;Min_cycle;Max_cycle;Signal;HPM_P1;HPM_P2
2021/07/03 00:02:04;;;;;;;10.43;6.78;;;;;;;;;;10288836;28;20082;-79
2021/07/03 00:07:05;;;;;;;10.25;6.32;;;;;;;;;;10288403;28;20487;-79
2021/07/03 00:12:07;;;;;;;12.55;6.95;;;;;;;;;;10287146;28;20138;-79
2021/07/03 00:17:09;;;;;;;9.20;6.63;;;;;;;;;;10287634;28;20086;-79
2021/07/03 00:22:11;;;;;;;9.70;6.60;;;;;;;;;;10269614;28;20059;-79
2021/07/03 00:27:12;;;;;;;10.38;7.07;;;;;;;;;;10286913;28;20086;-79
2021/07/03 00:32:14;;;;;;;9.60;6.90;;;;;;;;;;10288116;28;20130;-79
2021/07/03 00:37:16;;;;;;;8.23;6.55;;;;;;;;;;10270115;28;20066;-78
2021/07/03 00:42:18;;;;;;;10.80;6.32;;;;;;;;;;10270763;28;20054;-79
2021/07/03 00:47:19;;;;;;;10.68;7.18;;;;;;;;;;10286547;28;20133;-78
2021/07/03 00:52:21;;;;;;;7.60;6.22;;;;;;;;;;10287357;28;20134;-79
2021/07/03 00:57:23;;;;;;;12.75;7.00;;;;;;;;;;10285820;28;20082;-79
2021/07/03 01:02:24;;;;;;;9.85;7.32;;;;;;;;;;10269441;28;20109;-78
2021/07/03 01:07:26;;;;;;;10.55;6.93;;;;;;;;;;10269175;28;20174;-79
2021/07/03 01:12:28;;;;;;;11.45;7.25;;;;;;;;;;10285112;28;20074;-79
2021/07/03 01:17:29;;;;;;;8.02;6.55;;;;;;;;;;10284328;28;20138;-78
2021/07/03 01:22:31;;;;;;;12.10;7.40;;;;;;;;;;10286055;28;20138;-78
2021/07/03 01:27:32;;;;;;;10.63;6.65;;;;;;;;;;10284222;28;20133;-79
2021/07/03 01:32:34;;;;;;;10.57;7.22;;;;;;;;;;10299824;28;20556;-78
2021/07/03 01:37:36;;;;;;;8.55;6.45;;;;;;;;;;10284369;28;20749;-78
2021/07/03 01:42:38;;;;;;;11.57;7.20;;;;;;;;;;10285766;28;20090;-78
2021/07/03 01:47:41;;;;;;;10.50;7.45;;;;;;;;;;10284458;28;20612;-78
2021/07/03 01:52:43;;;;;;;10.00;7.35;;;;;;;;;;10316958;28;20456;-78
2021/07/03 01:57:44;;;;;;;10.25;7.65;;;;;;;;;;10284605;28;20134;-79
2021/07/03 02:02:46;;;;;;;8.93;6.70;;;;;;;;;;10286979;28;20473;-78
2021/07/03 02:07:49;;;;;;;13.40;7.05;;;;;;;;;;10291095;28;20053;-78
2021/07/03 02:12:50;;;;;;;10.10;7.65;;;;;;;;;;10291136;28;20467;-78
2021/07/03 02:17:52;;;;;;;14.00;7.47;;;;;;;;;;10305399;28;20059;-78
2021/07/03 02:22:54;;;;;;;11.75;7.28;;;;;;;;;;10272830;28;20086;-78
2021/07/03 02:27:56;;;;;;;11.13;7.57;;;;;;;;;;10291151;28;20079;-78
2021/07/03 02:33:00;;;;;;;14.93;8.23;;;;;;;;;;10291321;28;20137;-78
2021/07/03 02:38:02;;;;;;;9.70;7.22;;;;;;;;;;10290522;28;20141;-78
2021/07/03 02:43:04;;;;;;;15.32;8.07;;;;;;;;;;10291266;28;20134;-78
2021/07/03 02:48:05;;;;;;;15.43;7.40;;;;;;;;;;10295246;28;20082;-78
2021/07/03 02:53:07;;;;;;;12.55;7.88;;;;;;;;;;10299174;28;20093;-78
2021/07/03 02:58:08;;;;;;;12.88;7.75;;;;;;;;;;10281102;28;20093;-78
2021/07/03 03:03:10;;;;;;;13.05;7.78;;;;;;;;;;10294928;28;20082;-78
2021/07/03 03:08:11;;;;;;;11.63;7.50;;;;;;;;;;10293123;28;20516;-79
2021/07/03 03:13:13;;;;;;;14.68;8.65;;;;;;;;;;10290029;28;20547;-78
2021/07/03 03:18:14;;;;;;;12.65;8.88;;;;;;;;;;10273666;28;20055;-78
2021/07/03 03:23:16;;;;;;;11.45;8.05;;;;;;;;;;10289705;28;20086;-78
2021/07/03 03:28:17;;;;;;;11.80;8.32;;;;;;;;;;10290256;28;20473;-78
2021/07/03 03:33:19;;;;;;;12.85;7.38;;;;;;;;;;10289509;28;20165;-78
2021/07/03 03:38:40;;;;;;;9.77;7.55;;;;;;;;;;10289737;28;20065;-78
2021/07/03 03:43:42;;;;;;;22.80;8.63;;;;;;;;;;10290432;28;20129;-78
2021/07/03 03:48:44;;;;;;;10.27;6.90;;;;;;;;;;10289184;28;20053;-78
2021/07/03 03:53:45;;;;;;;99.68;11.35;;;;;;;;;;10289795;28;20472;-79
2021/07/03 03:58:47;;;;;;;16.15;8.98;;;;;;;;;;10288476;28;20090;-78
2021/07/03 04:03:48;;;;;;;30.85;8.52;;;;;;;;;;10298839;28;20074;-78
2021/07/03 04:08:50;;;;;;;34.20;9.10;;;;;;;;;;10287405;28;20103;-78
2021/07/03 04:13:51;;;;;;;23.40;7.90;;;;;;;;;;10269742;28;20126;-78
2021/07/03 04:18:53;;;;;;;52.35;10.20;;;;;;;;;;10284647;28;20496;-78
2021/07/03 04:23:54;;;;;;;11.48;6.75;;;;;;;;;;10268957;28;20081;-79
2021/07/03 04:28:56;;;;;;;8.95;6.25;;;;;;;;;;10285995;28;20488;-79
2021/07/03 04:33:57;;;;;;;12.02;6.72;;;;;;;;;;10304736;28;20070;-79
2021/07/03 04:38:59;;;;;;;7.22;5.63;;;;;;;;;;10300928;28;20580;-79
2021/07/03 04:44:01;;;;;;;7.32;5.28;;;;;;;;;;10281833;28;20057;-79
2021/07/03 04:49:03;;;;;;;8.35;5.05;;;;;;;;;;10285739;28;20577;-79
2021/07/03 04:54:05;;;;;;;9.50;5.80;;;;;;;;;;10286247;28;20444;-79
2021/07/03 04:59:06;;;;;;;7.78;5.05;;;;;;;;;;10285370;28;20063;-79
2021/07/03 05:04:08;;;;;;;8.43;5.90;;;;;;;;;;10269857;28;20130;-79
2021/07/03 05:09:09;;;;;;;8.82;5.53;;;;;;;;;;10285854;28;20082;-79
2021/07/03 05:14:11;;;;;;;9.43;5.68;;;;;;;;;;10285690;28;20130;-78
2021/07/03 05:19:13;;;;;;;11.07;5.78;;;;;;;;;;10285081;28;20142;-78
2021/07/03 05:24:15;;;;;;;8.70;4.97;;;;;;;;;;10286228;28;20182;-79
2021/07/03 05:29:17;;;;;;;7.47;5.53;;;;;;;;;;10286376;28;20440;-79
2021/07/03 05:34:19;;;;;;;7.63;5.55;;;;;;;;;;10286117;28;20059;-79
2021/07/03 05:39:20;;;;;;;11.05;6.07;;;;;;;;;;10285751;28;20078;-79
2021/07/03 05:44:23;;;;;;;9.82;6.00;;;;;;;;;;10286172;28;20089;-79
2021/07/03 05:49:25;;;;;;;12.75;7.57;;;;;;;;;;10284914;28;20078;-79
2021/07/03 05:54:28;;;;;;;10.20;7.70;;;;;;;;;;10285264;28;20162;-79
2021/07/03 05:59:30;;;;;;;10.88;7.70;;;;;;;;;;10285021;28;20078;-79
2021/07/03 06:04:31;;;;;;;13.35;8.00;;;;;;;;;;10285023;28;20081;-78
2021/07/03 06:09:33;;;;;;;10.55;8.02;;;;;;;;;;10268372;28;20451;-78
2021/07/03 06:14:34;;;;;;;9.52;7.50;;;;;;;;;;10285001;28;20051;-78
2021/07/03 06:19:36;;;;;;;13.77;8.20;;;;;;;;;;10284657;28;20051;-78
2021/07/03 06:24:38;;;;;;;13.18;9.32;;;;;;;;;;10284556;28;20074;-78
2021/07/03 06:29:40;;;;;;;12.70;9.63;;;;;;;;;;10284892;28;20155;-78
2021/07/03 06:34:41;;;;;;;15.38;9.38;;;;;;;;;;10284189;28;20548;-78
2021/07/03 06:39:43;;;;;;;10.95;8.65;;;;;;;;;;10283862;28;20088;-78
2021/07/03 06:44:45;;;;;;;11.20;8.68;;;;;;;;;;10284051;28;20460;-78
2021/07/03 06:49:47;;;;;;;12.48;9.02;;;;;;;;;;10282587;28;20129;-78
2021/07/03 06:54:48;;;;;;;12.80;8.98;;;;;;;;;;10283431;28;20129;-79
2021/07/03 06:59:50;;;;;;;15.57;8.15;;;;;;;;;;10284039;28;20134;-79
2021/07/03 07:04:52;;;;;;;11.82;7.95;;;;;;;;;;10265960;28;20133;-79
2021/07/03 07:09:53;;;;;;;9.93;7.47;;;;;;;;;;10266597;28;20089;-79
2021/07/03 07:14:55;;;;;;;9.52;7.00;;;;;;;;;;10283333;28;20535;-79
2021/07/03 07:19:56;;;;;;;10.00;6.97;;;;;;;;;;10283252;28;20097;-79
2021/07/03 07:24:58;;;;;;;9.80;7.30;;;;;;;;;;10283080;28;20085;-79
2021/07/03 07:30:00;;;;;;;8.98;6.72;;;;;;;;;;10283027;28;20047;-79
2021/07/03 07:35:02;;;;;;;9.07;6.70;;;;;;;;;;10288151;28;20137;-79
2021/07/03 07:40:04;;;;;;;9.73;6.40;;;;;;;;;;10273385;28;20081;-79
2021/07/03 07:45:07;;;;;;;8.40;6.50;;;;;;;;;;10289468;28;20074;-79
2021/07/03 07:50:19;;;;;;;9.15;6.70;;;;;;;;;;10290474;28;20051;-79
2021/07/03 07:55:20;;;;;;;8.50;6.30;;;;;;;;;;10273375;28;20070;-79
2021/07/03 08:00:22;;;;;;;8.60;6.53;;;;;;;;;;10288084;28;20134;-79
2021/07/03 08:05:24;;;;;;;10.00;6.57;;;;;;;;;;10289887;28;20082;-79
2021/07/03 08:10:27;;;;;;;12.68;6.57;;;;;;;;;;10288944;28;20097;-80
2021/07/03 08:15:31;;;;;;;8.27;6.28;;;;;;;;;;10289431;28;20071;-79
2021/07/03 08:20:33;;;;;;;8.00;5.95;;;;;;;;;;10288239;28;20101;-80
2021/07/03 08:25:35;;;;;;;7.63;5.90;;;;;;;;;;10287972;28;20090;-79
2021/07/03 08:30:36;;;;;;;8.82;5.70;;;;;;;;;;10288319;28;20086;-80
2021/07/03 08:35:41;;;;;;;9.02;6.00;;;;;;;;;;10287172;28;20494;-80
2021/07/03 08:40:43;;;;;;;10.65;6.65;;;;;;;;;;10262112;28;20091;-80
2021/07/03 08:45:44;;;;;;;8.50;5.65;;;;;;;;;;10246515;28;20138;-80
2021/07/03 08:50:46;;;;;;;9.70;5.88;;;;;;;;;;10257910;28;20150;-80
2021/07/03 08:55:47;;;;;;;8.85;6.00;;;;;;;;;;10258692;28;20146;-80
2021/07/03 09:00:49;;;;;;;9.15;5.78;;;;;;;;;;10244724;28;20142;-80
2021/07/03 09:05:54;;;;;;;13.05;5.85;;;;;;;;;;10244186;29;20075;-80
2021/07/03 09:11:10;;;;;;;8.23;5.55;;;;;;;;;;10243244;28;20650;-80
2021/07/03 09:16:14;;;;;;;7.88;6.05;;;;;;;;;;10246526;28;20532;-80
2021/07/03 09:21:20;;;;;;;10.52;5.40;;;;;;;;;;10262064;28;20063;-77
2021/07/03 09:26:21;;;;;;;7.72;5.22;;;;;;;;;;10245781;28;20082;-77
2021/07/03 09:31:23;;;;;;;7.55;5.20;;;;;;;;;;10245605;28;20084;-77
2021/07/03 09:36:26;;;;;;;7.65;4.63;;;;;;;;;;10245519;29;20080;-77
2021/07/03 09:41:30;;;;;;;7.13;4.50;;;;;;;;;;10280481;28;20516;-77
2021/07/03 09:46:33;;;;;;;5.70;4.35;;;;;;;;;;10285237;28;20416;-77
2021/07/03 09:51:36;;;;;;;4.93;3.72;;;;;;;;;;10285744;28;20082;-77
2021/07/03 09:56:39;;;;;;;5.30;3.78;;;;;;;;;;10283975;28;20074;-77
2021/07/03 10:01:42;;;;;;;8.32;3.72;;;;;;;;;;10284681;28;20046;-77
2021/07/03 10:06:44;;;;;;;6.88;3.72;;;;;;;;;;10283692;28;20058;-77
2021/07/03 10:11:48;;;;;;;7.68;3.80;;;;;;;;;;10284101;28;20142;-78
2021/07/03 10:16:59;;;;;;;5.93;3.58;;;;;;;;;;10284708;28;20142;-77
2021/07/03 10:22:12;;;;;;;5.00;3.53;;;;;;;;;;10283842;28;20129;-77
2021/07/03 10:27:32;;;;;;;4.63;3.35;;;;;;;;;;10283229;28;20082;-77
2021/07/03 10:32:35;;;;;;;5.15;3.70;;;;;;;;;;10284185;28;20146;-77
2021/07/03 10:37:37;;;;;;;5.82;3.50;;;;;;;;;;10283981;28;20105;-77
2021/07/03 10:42:39;;;;;;;8.02;3.70;;;;;;;;;;10283212;28;20085;-77
2021/07/03 10:47:44;;;;;;;5.10;3.20;;;;;;;;;;10266788;28;20095;-77
2021/07/03 10:52:46;;;;;;;8.90;3.70;;;;;;;;;;10283855;28;20046;-78
2021/07/03 10:57:47;;;;;;;9.10;3.50;;;;;;;;;;10283202;28;20134;-78
2021/07/03 11:02:49;;;;;;;4.18;2.80;;;;;;;;;;10283677;28;20074;-78
2021/07/03 11:07:50;;;;;;;4.78;3.10;;;;;;;;;;10286574;28;20093;-78
2021/07/03 11:12:53;;;;;;;5.35;3.15;;;;;;;;;;10290371;28;20075;-77
2021/07/03 11:17:55;;;;;;;5.13;2.60;;;;;;;;;;10272814;28;20401;-78
2021/07/03 11:22:58;;;;;;;5.10;2.80;;;;;;;;;;10290906;28;20046;-77
2021/07/03 11:28:07;;;;;;;4.22;2.95;;;;;;;;;;10289931;28;20058;-77
2021/07/03 11:33:10;;;;;;;4.25;2.80;;;;;;;;;;10290193;28;20130;-77
2021/07/03 11:38:12;;;;;;;5.28;3.10;;;;;;;;;;10289976;28;20117;-78
2021/07/03 11:43:13;;;;;;;4.70;2.95;;;;;;;;;;10290640;28;20496;-77
2021/07/03 11:48:16;;;;;;;4.85;3.10;;;;;;;;;;10273242;28;20520;-77
2021/07/03 11:53:19;;;;;;;3.20;2.50;;;;;;;;;;10289675;28;20055;-78
2021/07/03 11:58:25;;;;;;;5.00;2.60;;;;;;;;;;10288817;28;20129;-78
2021/07/03 12:03:28;;;;;;;4.82;2.90;;;;;;;;;;10289548;28;20125;-78
2021/07/03 12:08:34;;;;;;;4.10;2.83;;;;;;;;;;10288358;28;20089;-78
2021/07/03 12:13:37;;;;;;;4.50;2.78;;;;;;;;;;10288853;28;20109;-79
2021/07/03 12:18:43;;;;;;;5.45;2.70;;;;;;;;;;10288231;28;20073;-78
2021/07/03 12:23:45;;;;;;;4.35;2.80;;;;;;;;;;10288634;28;20082;-78
2021/07/03 12:29:06;;;;;;;4.05;2.72;;;;;;;;;;10287890;28;20081;-78
2021/07/03 12:34:11;;;;;;;4.32;2.80;;;;;;;;;;10288092;28;20047;-78
2021/07/03 12:39:20;;;;;;;4.10;3.15;;;;;;;;;;10287704;28;20134;-78
2021/07/03 12:44:21;;;;;;;;;;;;;;;;;;10288312;28;20078;-78
2021/07/03 12:49:31;;;;;;;5.05;2.80;;;;;;;;;;10302630;28;20392;-78
2021/07/03 12:54:33;;;;;;;3.55;2.80;;;;;;;;;;10286477;28;20401;-78
2021/07/03 12:59:41;;;;;;;4.22;2.80;;;;;;;;;;10287117;28;20142;-79
2021/07/03 13:04:43;;;;;;;4.85;2.97;;;;;;;;;;10286425;28;20097;-78
2021/07/03 13:09:45;;;;;;;3.85;2.80;;;;;;;;;;10286276;28;20480;-78
2021/07/03 13:15:02;;;;;;;4.05;2.60;;;;;;;;;;10286103;28;20057;-78
2021/07/03 13:20:04;;;;;;;4.15;2.70;;;;;;;;;;10285855;28;20089;-78
2021/07/03 13:25:06;;;;;;;4.30;2.70;;;;;;;;;;10285566;28;20101;-78
2021/07/03 13:30:09;;;;;;;7.05;2.72;;;;;;;;;;10285423;28;20134;-78
2021/07/03 13:35:11;;;;;;;4.25;2.58;;;;;;;;;;10284922;28;20133;-78
2021/07/03 13:40:13;;;;;;;7.20;3.90;;;;;;;;;;10282069;28;20595;-78
2021/07/03 13:45:15;;;;;;;4.90;3.30;;;;;;;;;;10288864;28;20146;-78
2021/07/03 13:50:17;;;;;;;4.13;2.85;;;;;;;;;;10282055;28;20492;-79
2021/07/03 13:55:18;;;;;;;3.90;2.80;;;;;;;;;;10283509;28;20073;-79
2021/07/03 14:00:20;;;;;;;4.40;3.10;;;;;;;;;;10279700;28;21012;-79
2021/07/03 14:05:22;;;;;;;3.88;2.70;;;;;;;;;;10285959;28;20568;-79
2021/07/03 14:10:24;;;;;;;4.30;2.60;;;;;;;;;;10283326;28;20138;-79
2021/07/03 14:15:25;;;;;;;5.47;2.80;;;;;;;;;;10282287;28;20050;-79
2021/07/03 14:20:27;;;;;;;4.00;2.60;;;;;;;;;;10282579;28;20073;-79
2021/07/03 14:25:29;;;;;;;3.97;2.60;;;;;;;;;;10281571;28;20047;-79
2021/07/03 14:30:35;;;;;;;3.67;2.67;;;;;;;;;;10281716;28;20129;-79
2021/07/03 14:35:36;;;;;;;4.30;2.53;;;;;;;;;;10290319;28;20077;-79
2021/07/03 14:40:38;;;;;;;3.35;2.47;;;;;;;;;;10282876;28;20150;-79
2021/07/03 14:45:39;;;;;;;3.08;2.30;;;;;;;;;;10290249;28;20134;-79
2021/07/03 14:50:42;;;;;;;4.40;3.13;;;;;;;;;;10290410;28;20448;-79
2021/07/03 14:55:43;;;;;;;6.53;2.80;;;;;;;;;;10290562;28;20082;-79
2021/07/03 15:00:45;;;;;;;4.35;2.40;;;;;;;;;;10289309;28;20137;-79
2021/07/03 15:05:47;;;;;;;3.15;2.25;;;;;;;;;;10294735;28;20470;-79
2021/07/03 15:10:48;;;;;;;5.72;2.63;;;;;;;;;;10291020;28;20166;-78
2021/07/03 15:15:50;;;;;;;4.40;2.70;;;;;;;;;;10289937;28;20075;-77
2021/07/03 15:20:52;;;;;;;3.33;2.42;;;;;;;;;;10290416;28;20117;-78
2021/07/03 15:25:54;;;;;;;3.30;2.35;;;;;;;;;;10288968;28;20097;-78
2021/07/03 15:30:57;;;;;;;4.18;2.80;;;;;;;;;;10289030;28;20544;-78
2021/07/03 15:35:58;;;;;;;3.90;2.40;;;;;;;;;;10288741;28;20057;-78
2021/07/03 15:41:02;;;;;;;4.63;2.60;;;;;;;;;;10303519;28;20138;-78
2021/07/03 15:46:04;;;;;;;3.55;2.53;;;;;;;;;;10271659;28;20134;-78
2021/07/03 15:51:07;;;;;;;4.82;2.90;;;;;;;;;;10286471;28;20082;-78
2021/07/03 15:56:08;;;;;;;5.10;2.70;;;;;;;;;;10287460;28;20134;-78
2021/07/03 16:01:10;;;;;;;4.22;2.90;;;;;;;;;;10287962;28;20130;-78
2021/07/03 16:06:12;;;;;;;6.75;2.70;;;;;;;;;;10288245;28;20137;-76
2021/07/03 16:11:14;;;;;;;3.42;2.50;;;;;;;;;;10283662;28;20078;-77
2021/07/03 16:16:15;;;;;;;4.55;2.47;;;;;;;;;;10286497;28;20182;-77
2021/07/03 16:21:17;;;;;;;4.13;2.83;;;;;;;;;;10297209;28;20050;-77
2021/07/03 16:26:19;;;;;;;5.38;3.33;;;;;;;;;;10288510;28;20082;-77
2021/07/03 16:31:21;;;;;;;4.88;3.22;;;;;;;;;;10300202;28;20135;-77
2021/07/03 16:36:22;;;;;;;4.78;3.00;;;;;;;;;;10283823;28;20046;-77
2021/07/03 16:41:24;;;;;;;6.93;3.30;;;;;;;;;;10272694;28;20078;-77
2021/07/03 16:46:26;;;;;;;4.85;2.90;;;;;;;;;;10263736;28;20062;-77
2021/07/03 16:51:28;;;;;;;6.28;3.00;;;;;;;;;;10282713;28;20105;-77
2021/07/03 16:56:56;;;;;;;4.18;2.85;;;;;;;;;;10306231;28;20043;-77
2021/07/03 17:01:58;;;;;;;4.05;2.70;;;;;;;;;;10283788;28;20062;-78
2021/07/03 17:07:00;;;;;;;12.48;3.42;;;;;;;;;;10283008;28;20089;-78
2021/07/03 17:12:01;;;;;;;4.63;2.80;;;;;;;;;;10286643;28;20042;-78
2021/07/03 17:17:03;;;;;;;5.95;3.00;;;;;;;;;;10286576;28;20082;-78
2021/07/03 17:22:05;;;;;;;4.90;3.00;;;;;;;;;;10285420;28;20066;-78
2021/07/03 17:27:08;;;;;;;5.97;3.08;;;;;;;;;;10285399;28;20086;-78
2021/07/03 17:32:10;;;;;;;6.40;3.00;;;;;;;;;;10285703;28;20556;-77
2021/07/03 17:37:11;;;;;;;4.90;3.10;;;;;;;;;;10300563;28;20038;-77
2021/07/03 17:42:13;;;;;;;4.55;3.10;;;;;;;;;;10268625;28;20520;-77
2021/07/03 17:47:14;;;;;;;4.95;3.22;;;;;;;;;;10285771;28;20089;-77
2021/07/03 17:52:16;;;;;;;4.50;2.97;;;;;;;;;;10284970;28;20130;-77
2021/07/03 17:57:17;;;;;;;4.38;3.10;;;;;;;;;;10285128;28;20584;-77
2021/07/03 18:02:19;;;;;;;8.07;3.20;;;;;;;;;;10283800;28;20078;-77
2021/07/03 18:07:21;;;;;;;6.03;3.22;;;;;;;;;;10283566;28;20054;-77
2021/07/03 18:12:22;;;;;;;4.10;3.00;;;;;;;;;;10283843;28;20572;-77
2021/07/03 18:17:24;;;;;;;4.05;3.20;;;;;;;;;;10282981;28;20270;-78
2021/07/03 18:22:26;;;;;;;4.50;3.10;;;;;;;;;;10276264;28;20142;-78
2021/07/03 18:27:28;;;;;;;5.18;3.10;;;;;;;;;;10265148;28;20086;-78
2021/07/03 18:32:30;;;;;;;4.40;3.25;;;;;;;;;;10279517;28;20186;-78
2021/07/03 18:37:32;;;;;;;5.35;3.50;;;;;;;;;;10282242;28;20083;-80
2021/07/03 18:42:33;;;;;;;6.10;3.60;;;;;;;;;;10283152;28;20468;-81
2021/07/03 18:47:35;;;;;;;5.07;3.50;;;;;;;;;;10283565;28;20082;-80
2021/07/03 18:52:37;;;;;;;4.47;3.50;;;;;;;;;;10283725;28;20062;-80
2021/07/03 18:57:39;;;;;;;6.93;3.80;;;;;;;;;;10283121;28;20061;-80
2021/07/03 19:02:41;;;;;;;6.10;3.70;;;;;;;;;;10282556;28;20058;-80
2021/07/03 19:07:43;;;;;;;5.28;3.50;;;;;;;;;;10283082;28;20137;-80
2021/07/03 19:12:52;;;;;;;7.35;3.55;;;;;;;;;;10298328;28;20469;-80
2021/07/03 19:17:53;;;;;;;5.30;3.80;;;;;;;;;;10283371;28;20043;-80
2021/07/03 19:22:55;;;;;;;4.35;3.40;;;;;;;;;;10270826;28;20078;-80
2021/07/03 19:27:56;;;;;;;5.55;3.90;;;;;;;;;;10279304;28;20105;-80
2021/07/03 19:32:58;;;;;;;6.28;4.07;;;;;;;;;;10305141;28;20138;-80
2021/07/03 19:38:00;;;;;;;9.38;4.90;;;;;;;;;;10289782;28;20078;-80
2021/07/03 19:43:01;;;;;;;7.65;4.00;;;;;;;;;;10289471;28;20562;-80
2021/07/03 19:48:05;;;;;;;5.97;3.97;;;;;;;;;;10288746;28;20464;-80
2021/07/03 19:53:08;;;;;;;6.15;4.00;;;;;;;;;;10288937;28;20459;-80
2021/07/03 19:58:09;;;;;;;6.50;4.35;;;;;;;;;;10287761;28;20126;-81
2021/07/03 20:03:11;;;;;;;5.18;4.13;;;;;;;;;;10288955;28;20138;-82
2021/07/03 20:08:13;;;;;;;7.40;4.70;;;;;;;;;;10284968;28;20130;-82
2021/07/03 20:13:14;;;;;;;5.55;3.60;;;;;;;;;;10282959;28;20130;-80
2021/07/03 20:18:16;;;;;;;6.88;4.30;;;;;;;;;;10287688;28;20059;-80
2021/07/03 20:23:18;;;;;;;4.63;3.80;;;;;;;;;;10288198;28;20122;-80
2021/07/03 20:28:19;;;;;;;5.20;4.13;;;;;;;;;;10288149;28;20465;-80
2021/07/03 20:33:21;;;;;;;9.15;4.28;;;;;;;;;;10286289;28;20476;-80
2021/07/03 20:38:22;;;;;;;5.97;4.20;;;;;;;;;;10269660;28;20082;-80
2021/07/03 20:43:24;;;;;;;7.65;4.50;;;;;;;;;;10287361;28;20086;-80
2021/07/03 20:48:26;;;;;;;6.05;4.40;;;;;;;;;;10287237;28;20075;-80
2021/07/03 20:53:27;;;;;;;7.20;4.25;;;;;;;;;;10286879;28;20057;-79
2021/07/03 20:58:29;;;;;;;6.15;4.60;;;;;;;;;;10286523;28;20445;-79
2021/07/03 21:03:30;;;;;;;8.07;4.45;;;;;;;;;;10286384;28;20153;-80
2021/07/03 21:08:32;;;;;;;5.45;4.32;;;;;;;;;;10267849;28;20082;-80
2021/07/03 21:13:33;;;;;;;8.88;4.30;;;;;;;;;;10287060;28;20612;-80
2021/07/03 21:18:35;;;;;;;4.57;4.00;;;;;;;;;;10285896;28;20109;-80
2021/07/03 21:23:36;;;;;;;7.50;4.60;;;;;;;;;;10300751;28;20145;-80
2021/07/03 21:28:38;;;;;;;7.45;4.97;;;;;;;;;;10285237;28;20090;-80
2021/07/03 21:33:40;;;;;;;7.80;4.50;;;;;;;;;;10300335;28;20125;-80
2021/07/03 21:38:42;;;;;;;6.25;4.40;;;;;;;;;;10285077;28;20078;-80
2021/07/03 21:43:44;;;;;;;7.75;4.38;;;;;;;;;;10284985;28;20049;-80
2021/07/03 21:48:45;;;;;;;7.10;4.50;;;;;;;;;;10284430;28;20082;-80
2021/07/03 21:53:48;;;;;;;6.05;4.63;;;;;;;;;;10284129;28;20170;-80
2021/07/03 21:59:10;;;;;;;7.68;4.50;;;;;;;;;;10270941;28;20046;-80
2021/07/03 22:04:11;;;;;;;6.45;4.32;;;;;;;;;;10284610;28;20151;-80
2021/07/03 22:09:13;;;;;;;8.00;5.00;;;;;;;;;;10283780;28;20126;-80
2021/07/03 22:14:15;;;;;;;5.55;4.35;;;;;;;;;;10283936;28;20077;-80
2021/07/03 22:19:16;;;;;;;7.53;4.22;;;;;;;;;;10283665;28;20141;-80
2021/07/03 22:24:18;;;;;;;6.80;4.28;;;;;;;;;;10284116;28;20130;-80
2021/07/03 22:29:19;;;;;;;6.90;4.47;;;;;;;;;;10283985;28;20170;-80
2021/07/03 22:34:21;;;;;;;6.82;4.50;;;;;;;;;;10282846;28;20515;-80
2021/07/03 22:39:22;;;;;;;5.82;4.40;;;;;;;;;;10283332;28;20142;-80
2021/07/03 22:44:24;;;;;;;5.82;4.40;;;;;;;;;;10283530;28;20079;-80
2021/07/03 22:49:25;;;;;;;6.10;4.40;;;;;;;;;;10283308;28;20117;-80
2021/07/03 22:54:27;;;;;;;6.20;4.32;;;;;;;;;;10282584;28;20134;-80
2021/07/03 22:59:29;;;;;;;7.30;4.80;;;;;;;;;;10283251;28;20078;-80
2021/07/03 23:04:31;;;;;;;6.00;4.93;;;;;;;;;;10286690;28;20134;-80
2021/07/03 23:09:32;;;;;;;5.55;4.45;;;;;;;;;;10273494;28;20130;-80
2021/07/03 23:14:34;;;;;;;9.23;5.03;;;;;;;;;;10273623;28;20141;-80
2021/07/03 23:19:35;;;;;;;6.32;4.85;;;;;;;;;;10290608;28;20075;-80
2021/07/03 23:24:37;;;;;;;8.73;5.25;;;;;;;;;;10273517;28;20093;-80
2021/07/03 23:29:39;;;;;;;5.75;4.70;;;;;;;;;;10289781;28;20519;-79
2021/07/03 23:34:40;;;;;;;6.03;4.68;;;;;;;;;;10272193;28;20106;-79
2021/07/03 23:39:42;;;;;;;7.35;4.93;;;;;;;;;;10271018;28;20561;-79
2021/07/03 23:44:43;;;;;;;6.60;5.03;;;;;;;;;;10289481;28;20062;-80
2021/07/03 23:49:45;;;;;;;5.82;4.70;;;;;;;;;;10288954;28;20143;-79
2021/07/03 23:54:46;;;;;;;6.80;5.20;;;;;;;;;;10289327;28;20114;-79
2021/07/03 23:59:48;;;;;;;6.50;5.05;;;;;;;;;;10288257;28;20074;-79
